createdAt,value
2019-05-19T00:00:16.856Z,22.50
2019-05-19T00:01:16.829Z,23.80
2019-05-19T00:02:16.814Z,22.80
2019-05-19T00:03:16.789Z,24.00
2019-05-19T00:04:16.782Z,22.30
2019-05-19T00:05:16.774Z,22.50
2019-05-19T00:06:16.737Z,22.50
2019-05-19T00:07:16.721Z,24.10
2019-05-19T00:08:16.708Z,23.30
2019-05-19T00:09:16.817Z,24.60
2019-05-19T00:10:16.686Z,26.00
2019-05-19T06:09:28.796Z,20.10
2019-05-19T06:10:28.760Z,23.80
2019-05-19T06:11:28.740Z,26.70
2019-05-19T06:12:28.733Z,27.00
2019-05-19T06:13:28.697Z,26.60
2019-05-19T06:14:28.678Z,28.00
2019-05-19T06:15:28.672Z,26.10
2019-05-19T06:16:28.637Z,26.00
2019-05-19T06:17:28.653Z,23.60
2019-05-19T06:18:28.603Z,22.90
2019-05-19T06:19:28.579Z,23.40
2019-05-19T06:20:28.560Z,23.80
2019-05-19T06:21:28.544Z,21.80
2019-05-19T06:22:28.527Z,21.80
2019-05-19T06:23:28.518Z,20.60
2019-05-19T06:24:28.488Z,21.80
2019-05-19T06:25:28.513Z,22.90
2019-05-19T06:26:28.450Z,22.90
2019-05-19T06:27:28.433Z,20.30
2019-05-19T06:28:28.428Z,19.60
2019-05-19T06:29:28.400Z,20.40
2019-05-19T06:30:28.378Z,20.80
2019-05-19T06:31:28.361Z,21.00
2019-05-19T06:32:28.346Z,19.50
2019-05-19T06:33:28.351Z,22.50
2019-05-19T06:34:28.307Z,23.60
2019-05-19T06:35:28.290Z,20.40
2019-05-19T06:36:28.273Z,20.00
2019-05-19T06:37:28.255Z,21.10
2019-05-19T06:38:28.243Z,21.40
2019-05-19T06:39:28.235Z,20.80
2019-05-19T06:40:28.216Z,22.80
2019-05-19T06:41:28.187Z,22.10
2019-05-19T06:42:28.174Z,19.80
2019-05-19T06:43:28.157Z,19.70
2019-05-19T06:44:28.154Z,20.60
2019-05-19T06:45:28.130Z,20.50
2019-05-19T06:46:28.102Z,20.00
2019-05-19T06:47:28.085Z,20.40
2019-05-19T06:48:28.071Z,19.90
2019-05-19T06:49:28.065Z,19.50
2019-05-19T06:50:28.037Z,22.10
2019-05-19T06:51:28.075Z,23.30
2019-05-19T06:52:28.005Z,19.80
2019-05-19T06:53:27.993Z,19.40
2019-05-19T06:54:27.992Z,20.60
2019-05-19T06:55:27.971Z,22.10
2019-05-19T06:56:27.942Z,23.20
2019-05-19T06:57:27.926Z,23.60
2019-05-19T06:58:27.909Z,23.40
2019-05-19T06:59:27.890Z,24.40
2019-05-19T07:00:27.886Z,26.40
2019-05-19T07:01:27.860Z,24.20
2019-05-19T07:02:27.845Z,26.40
2019-05-19T07:03:27.886Z,25.10
2019-05-19T07:04:27.807Z,24.00
2019-05-19T07:05:28.542Z,25.20
2019-05-19T07:06:27.964Z,26.60
2019-05-19T07:07:27.760Z,25.10
2019-05-19T07:08:27.781Z,23.80
2019-05-19T07:09:27.748Z,22.90
2019-05-19T07:10:27.735Z,24.20
2019-05-19T07:11:27.709Z,25.60
2019-05-19T07:12:27.683Z,25.30
2019-05-19T07:13:27.696Z,25.00
2019-05-19T07:14:27.652Z,25.30
2019-05-19T07:15:27.639Z,26.70
2019-05-19T07:16:27.635Z,26.90
2019-05-19T07:17:27.607Z,25.30
2019-05-19T07:18:27.589Z,26.40
2019-05-19T07:19:27.572Z,25.30
2019-05-19T07:20:27.557Z,25.30
2019-05-19T07:21:27.558Z,25.20
2019-05-19T07:22:27.531Z,25.90
2019-05-19T07:23:28.787Z,25.50
2019-05-19T07:24:27.497Z,26.30
2019-05-19T07:25:27.483Z,26.90
2019-05-19T07:26:27.486Z,27.00
2019-05-19T07:27:27.451Z,27.70
2019-05-19T07:28:27.435Z,27.50
2019-05-19T07:29:27.421Z,24.60
2019-05-19T07:30:27.410Z,25.60
2019-05-19T07:31:27.409Z,25.60
2019-05-19T07:32:27.374Z,24.70
2019-05-19T07:33:27.360Z,27.60
2019-05-19T07:34:27.403Z,26.80
2019-05-19T07:35:27.329Z,28.70
2019-05-19T07:36:27.334Z,25.90
2019-05-19T07:37:27.316Z,27.20
2019-05-19T07:38:27.286Z,27.20
2019-05-19T07:39:27.271Z,27.20
2019-05-19T07:40:27.272Z,28.90
2019-05-19T07:41:27.244Z,29.00
2019-05-19T07:42:27.240Z,27.20
2019-05-19T07:43:27.212Z,29.50
2019-05-19T07:44:27.198Z,30.70
2019-05-19T07:45:27.181Z,30.30
2019-05-19T07:46:27.166Z,27.80
2019-05-19T07:47:27.990Z,27.10
2019-05-19T07:48:27.138Z,28.20
2019-05-19T07:49:27.274Z,28.40
2019-05-19T07:50:27.110Z,28.40
2019-05-19T07:51:27.093Z,28.20
2019-05-19T07:52:27.087Z,28.80
2019-05-19T07:53:27.081Z,27.70
2019-05-19T07:54:27.057Z,26.40
2019-05-19T07:55:27.048Z,26.30
2019-05-19T07:56:27.034Z,26.90
2019-05-19T07:57:27.008Z,26.80
2019-05-19T07:58:27.044Z,26.00
2019-05-19T07:59:26.976Z,26.10
2019-05-19T08:00:26.968Z,25.90
2019-05-19T08:01:26.954Z,25.40
2019-05-19T08:02:26.938Z,26.50
2019-05-19T08:03:26.937Z,26.80
2019-05-19T08:04:26.913Z,26.30
2019-05-19T08:05:26.895Z,25.30
2019-05-19T08:06:26.882Z,26.30
2019-05-19T08:07:26.869Z,24.40
2019-05-19T08:08:26.890Z,25.40
2019-05-19T08:09:26.851Z,25.40
2019-05-19T08:10:26.824Z,26.40
2019-05-19T08:11:27.079Z,26.30
2019-05-19T08:12:26.797Z,24.70
2019-05-19T08:13:26.783Z,24.90
2019-05-19T08:14:26.786Z,25.60
2019-05-19T08:15:26.755Z,27.40
2019-05-19T08:16:26.776Z,26.20
2019-05-19T08:17:26.727Z,26.40
2019-05-19T08:18:26.863Z,26.80
2019-05-19T08:19:26.712Z,25.80
2019-05-19T08:20:26.684Z,26.20
2019-05-19T08:21:26.732Z,26.90
2019-05-19T08:22:26.658Z,25.00
2019-05-19T08:23:26.643Z,24.40
2019-05-19T08:24:26.643Z,25.60
2019-05-19T08:25:26.619Z,24.70
2019-05-19T08:26:26.602Z,25.10
2019-05-19T08:27:26.589Z,25.30
2019-05-19T08:28:26.573Z,26.20
2019-05-19T08:29:26.576Z,26.40
2019-05-19T08:30:26.574Z,26.90
2019-05-19T08:31:26.547Z,26.60
2019-05-19T08:32:26.520Z,25.10
2019-05-19T08:33:26.518Z,25.90
2019-05-19T08:34:26.519Z,24.40
2019-05-19T08:35:26.482Z,26.40
2019-05-19T08:36:26.471Z,25.30
2019-05-19T08:37:26.475Z,24.50
2019-05-19T08:38:26.439Z,25.40
2019-05-19T08:39:26.427Z,25.50
2019-05-19T08:40:26.427Z,23.90
2019-05-19T08:41:26.399Z,25.00
2019-05-19T08:42:26.383Z,23.60
2019-05-19T08:43:26.370Z,23.90
2019-05-19T08:44:26.358Z,24.00
2019-05-19T08:45:26.362Z,24.90
2019-05-19T08:46:26.341Z,25.30
2019-05-19T08:47:26.319Z,24.60
2019-05-19T08:48:26.302Z,23.90
2019-05-19T08:49:26.316Z,23.90
2019-05-19T08:50:26.292Z,23.20
2019-05-19T08:51:26.261Z,23.80
2019-05-19T08:52:26.247Z,23.30
2019-05-19T08:53:26.331Z,22.30
2019-05-19T08:54:26.222Z,21.90
2019-05-19T08:55:26.222Z,22.70
2019-05-19T08:56:26.196Z,21.90
2019-05-19T08:57:26.186Z,22.40
2019-05-19T08:58:26.167Z,23.10
2019-05-19T08:59:26.190Z,21.80
2019-05-19T09:00:26.153Z,22.00
2019-05-19T09:01:26.125Z,21.30
2019-05-19T09:02:26.112Z,21.10
2019-05-19T09:03:26.102Z,22.10
2019-05-19T09:04:26.085Z,21.50
2019-05-19T09:05:26.100Z,20.10
2019-05-19T09:06:26.059Z,22.20
2019-05-19T09:07:26.042Z,22.20
2019-05-19T09:08:26.035Z,22.90
2019-05-19T09:09:26.020Z,22.40
2019-05-19T09:10:26.003Z,22.00
2019-05-19T09:11:26.002Z,20.90
2019-05-19T09:12:25.975Z,20.70
2019-05-19T09:13:25.963Z,21.30
2019-05-19T09:14:25.946Z,21.00
2019-05-19T09:15:25.933Z,20.80
2019-05-19T09:16:25.935Z,21.00
2019-05-19T09:17:25.917Z,20.90
2019-05-19T09:18:25.894Z,21.10
2019-05-19T09:19:25.883Z,21.10
2019-05-19T09:20:25.868Z,21.20
2019-05-19T09:21:25.875Z,20.30
2019-05-19T09:22:25.841Z,20.40
2019-05-19T09:23:25.828Z,19.30
2019-05-19T09:24:30.362Z,19.20
2019-05-19T09:25:25.810Z,19.40
2019-05-19T09:26:25.808Z,19.10
2019-05-19T09:27:25.771Z,19.20
2019-05-19T09:28:25.758Z,18.20
2019-05-19T09:29:25.745Z,17.30
2019-05-19T09:30:25.731Z,17.70
2019-05-19T09:31:25.717Z,19.00
2019-05-19T09:32:25.722Z,18.40
2019-05-19T09:33:25.689Z,19.00
2019-05-19T09:34:25.677Z,18.80
2019-05-19T09:35:25.661Z,19.70
2019-05-19T09:36:25.657Z,19.00
2019-05-19T09:37:25.651Z,19.40
2019-05-19T09:38:25.649Z,19.70
2019-05-19T09:39:25.609Z,19.50
2019-05-19T09:40:26.775Z,19.70
2019-05-19T09:41:25.595Z,19.30
2019-05-19T09:42:25.584Z,20.40
2019-05-19T09:43:25.557Z,20.10
2019-05-19T09:44:25.543Z,21.30
2019-05-19T09:45:25.531Z,20.10
2019-05-19T09:46:25.517Z,20.10
2019-05-19T09:47:25.517Z,19.20
2019-05-19T09:48:25.493Z,19.50
2019-05-19T09:49:25.479Z,18.80
2019-05-19T09:50:25.465Z,17.90
2019-05-19T09:51:25.450Z,17.70
2019-05-19T09:52:25.477Z,18.90
2019-05-19T09:53:25.426Z,18.80
2019-05-19T09:54:25.417Z,18.40
2019-05-19T09:55:25.399Z,18.90
2019-05-19T09:56:25.386Z,17.60
2019-05-19T09:57:25.373Z,17.30
2019-05-19T09:58:25.373Z,17.50
2019-05-19T09:59:25.347Z,15.80
2019-05-19T10:00:25.335Z,17.00
2019-05-19T10:01:25.323Z,16.90
2019-05-19T10:02:25.308Z,16.30
2019-05-19T10:03:25.311Z,15.70
2019-05-19T10:04:25.291Z,17.10
2019-05-19T10:05:25.272Z,18.00
2019-05-19T10:06:25.262Z,18.00
2019-05-19T10:07:25.244Z,16.30
2019-05-19T10:08:25.253Z,17.50
2019-05-19T10:09:25.221Z,18.00
2019-05-19T10:10:25.210Z,17.40
2019-05-19T10:11:25.199Z,17.00
2019-05-19T10:12:25.182Z,16.80
2019-05-19T10:13:25.188Z,16.40
2019-05-19T10:14:25.159Z,16.00
2019-05-19T10:15:25.144Z,14.70
2019-05-19T10:16:25.137Z,11.20
2019-05-19T10:17:25.119Z,11.10
2019-05-19T10:18:25.109Z,12.00
2019-05-19T10:19:25.111Z,13.30
2019-05-19T10:20:25.083Z,14.10
2019-05-19T10:21:25.069Z,14.30
2019-05-19T10:22:25.060Z,13.90
2019-05-19T10:23:25.043Z,13.50
2019-05-19T10:24:25.049Z,13.20
2019-05-19T10:25:25.043Z,15.30
2019-05-19T10:26:25.008Z,14.00
2019-05-19T10:27:24.994Z,14.90
2019-05-19T10:28:24.982Z,14.90
2019-05-19T10:29:24.991Z,14.20
2019-05-19T10:30:24.964Z,13.40
2019-05-19T10:31:24.944Z,12.10
2019-05-19T10:32:24.934Z,12.80
2019-05-19T10:33:24.921Z,13.70
2019-05-19T10:34:24.909Z,12.70
2019-05-19T10:35:24.910Z,12.60
2019-05-19T10:36:24.884Z,11.80
2019-05-19T10:37:24.872Z,11.30
2019-05-19T10:38:24.863Z,10.70
2019-05-19T10:39:24.851Z,10.30
2019-05-19T10:40:24.855Z,9.60
2019-05-19T10:41:24.822Z,10.40
2019-05-19T10:42:24.813Z,10.00
2019-05-19T10:43:24.799Z,9.60
2019-05-19T10:44:24.788Z,8.90
2019-05-19T10:45:24.812Z,7.40
2019-05-19T10:46:24.764Z,7.00
2019-05-19T10:47:24.803Z,11.90
2019-05-19T10:48:24.740Z,11.10
2019-05-19T10:49:24.729Z,12.90
2019-05-19T10:50:24.719Z,11.90
2019-05-19T10:51:24.720Z,12.40
2019-05-19T10:52:24.707Z,11.60
2019-05-19T10:53:24.683Z,10.80
2019-05-19T10:54:24.672Z,9.70
2019-05-19T10:55:35.971Z,10.10
2019-05-19T10:56:24.671Z,9.90
2019-05-19T10:57:24.635Z,9.90
2019-05-19T10:58:24.614Z,11.00
2019-05-19T10:59:24.601Z,10.30
2019-05-19T11:00:24.590Z,9.00
2019-05-19T11:01:24.577Z,8.60
2019-05-19T11:02:24.580Z,10.00
2019-05-19T11:03:24.554Z,10.10
2019-05-19T11:04:24.543Z,9.60
2019-05-19T11:05:24.527Z,10.40
2019-05-19T11:06:25.511Z,10.00
2019-05-19T11:07:24.516Z,11.00
2019-05-19T11:08:24.495Z,10.00
2019-05-19T11:09:24.480Z,9.20
2019-05-19T11:10:24.471Z,9.80
2019-05-19T11:11:24.455Z,9.60
2019-05-19T11:12:24.491Z,11.40
2019-05-19T11:13:24.475Z,11.30
2019-05-19T11:14:24.421Z,10.90
2019-05-19T11:15:24.410Z,10.70
2019-05-19T11:16:24.401Z,10.10
2019-05-19T11:17:24.385Z,10.10
2019-05-19T11:18:24.499Z,10.00
2019-05-19T11:19:24.389Z,9.60
2019-05-19T11:20:24.349Z,9.60
2019-05-19T11:21:24.335Z,11.60
2019-05-19T11:22:24.339Z,11.20
2019-05-19T11:23:24.359Z,11.70
2019-05-19T11:24:24.311Z,11.80
2019-05-19T11:25:33.376Z,11.50
2019-05-19T11:26:24.278Z,11.20
2019-05-19T11:27:24.271Z,10.60
2019-05-19T11:28:24.478Z,9.60
2019-05-19T11:29:24.243Z,11.90
2019-05-19T11:30:24.233Z,12.10
2019-05-19T11:31:24.219Z,10.70
2019-05-19T11:32:24.210Z,12.50
2019-05-19T11:33:24.197Z,12.00
2019-05-19T11:34:24.211Z,12.00
2019-05-19T11:35:24.174Z,12.00
2019-05-19T11:36:24.166Z,12.40
2019-05-19T11:37:24.153Z,12.30
2019-05-19T11:38:24.148Z,12.40
2019-05-19T11:39:24.143Z,11.50
2019-05-19T11:40:24.117Z,11.80
2019-05-19T11:41:24.132Z,11.50
2019-05-19T11:42:24.096Z,12.00
2019-05-19T11:43:24.085Z,12.00
2019-05-19T11:44:24.109Z,11.60
2019-05-19T11:45:24.060Z,10.50
2019-05-19T11:46:24.049Z,10.30
2019-05-19T11:47:24.037Z,11.10
2019-05-19T11:48:24.025Z,11.50
2019-05-19T11:49:24.019Z,11.30
2019-05-19T11:50:24.018Z,12.10
2019-05-19T11:51:24.036Z,12.20
2019-05-19T11:52:23.980Z,12.00
2019-05-19T11:53:23.973Z,11.30
2019-05-19T11:54:23.958Z,11.90
2019-05-19T11:55:23.963Z,12.00
2019-05-19T11:56:23.951Z,12.50
2019-05-19T11:57:24.109Z,12.30
2019-05-19T11:58:24.002Z,15.00
2019-05-19T11:59:23.914Z,14.50
2019-05-19T12:00:23.961Z,14.00
2019-05-19T12:01:23.924Z,16.20
2019-05-19T12:02:23.875Z,16.30
2019-05-19T12:03:23.862Z,15.10
2019-05-19T12:04:23.867Z,16.00
2019-05-19T12:05:23.892Z,14.70
2019-05-19T12:06:38.006Z,14.70
2019-05-19T12:07:23.814Z,15.70
2019-05-19T12:08:23.808Z,14.50
2019-05-19T12:09:23.825Z,15.00
2019-05-19T12:10:23.783Z,14.50
2019-05-19T12:11:23.782Z,15.50
2019-05-19T12:12:23.758Z,15.30
2019-05-19T12:13:23.750Z,15.50
2019-05-19T12:14:23.742Z,15.00
2019-05-19T12:15:23.727Z,14.90
2019-05-19T12:16:23.754Z,15.30
2019-05-19T12:17:23.702Z,14.40
2019-05-19T12:18:23.694Z,14.70
2019-05-19T12:19:23.719Z,14.50
2019-05-19T12:20:23.670Z,14.90
2019-05-19T12:21:23.659Z,15.00
2019-05-19T12:22:23.676Z,15.60
2019-05-19T12:23:23.651Z,15.60
2019-05-19T12:24:23.637Z,15.50
2019-05-19T12:25:23.692Z,14.70
2019-05-19T12:26:23.912Z,14.00
2019-05-19T12:27:23.617Z,13.20
2019-05-19T12:28:23.589Z,13.30
2019-05-19T12:29:23.571Z,13.00
2019-05-19T12:30:23.558Z,12.80
2019-05-19T12:31:23.553Z,12.70
2019-05-19T12:32:23.559Z,12.40
2019-05-19T12:33:23.527Z,12.30
2019-05-19T12:34:23.520Z,12.20
2019-05-19T12:35:23.516Z,12.30
2019-05-19T12:36:23.497Z,11.20
2019-05-19T12:37:23.520Z,13.20
2019-05-19T12:38:23.468Z,11.70
2019-05-19T12:39:23.462Z,11.70
2019-05-19T12:40:23.448Z,10.90
2019-05-19T12:41:23.440Z,10.50
2019-05-19T12:42:23.431Z,10.80
2019-05-19T12:43:23.434Z,11.00
2019-05-19T12:44:23.405Z,11.20
2019-05-19T12:45:23.392Z,10.00
2019-05-19T12:46:23.384Z,10.60
2019-05-19T12:47:23.381Z,10.50
2019-05-19T12:48:23.375Z,10.20
2019-05-19T12:49:23.351Z,10.40
2019-05-19T12:50:23.337Z,9.70
2019-05-19T12:51:26.662Z,9.50
2019-05-19T12:52:23.315Z,9.00
2019-05-19T12:53:23.342Z,9.10
2019-05-19T12:54:23.306Z,9.50
2019-05-19T12:55:23.284Z,9.10
2019-05-19T12:56:37.128Z,9.00
2019-05-19T12:57:23.262Z,9.40
2019-05-19T12:58:23.272Z,9.20
2019-05-19T12:59:23.240Z,7.30
2019-05-19T13:00:23.231Z,8.30
2019-05-19T13:01:23.222Z,8.90
2019-05-19T13:02:23.284Z,9.20
2019-05-19T13:03:23.201Z,8.00
2019-05-19T13:04:23.207Z,7.10
2019-05-19T13:05:23.182Z,7.00
2019-05-19T13:06:23.172Z,6.10
2019-05-19T13:07:23.162Z,7.60
2019-05-19T13:08:23.152Z,8.40
2019-05-19T13:09:23.157Z,7.70
2019-05-19T13:10:23.135Z,7.20
2019-05-19T13:11:23.123Z,7.30
2019-05-19T13:12:23.114Z,8.10
2019-05-19T13:13:23.104Z,7.10
2019-05-19T13:14:23.108Z,7.10
2019-05-19T13:15:23.087Z,7.00
2019-05-19T13:16:23.076Z,6.90
2019-05-19T13:17:23.064Z,6.60
2019-05-19T13:18:23.055Z,6.70
2019-05-19T13:19:23.075Z,6.30
2019-05-19T13:20:23.034Z,6.30
2019-05-19T13:21:23.026Z,6.60
2019-05-19T13:22:23.015Z,6.30
2019-05-19T13:23:23.007Z,5.30
2019-05-19T13:24:22.997Z,5.00
2019-05-19T13:25:23.004Z,3.70
2019-05-19T13:26:22.974Z,3.10
2019-05-19T13:27:22.966Z,3.00
2019-05-19T13:28:22.952Z,3.00
2019-05-19T13:29:22.942Z,2.50
2019-05-19T13:30:22.954Z,2.10
2019-05-19T13:31:22.916Z,1.80
2019-05-19T13:32:22.910Z,2.20
2019-05-19T13:33:22.896Z,2.10
2019-05-19T13:34:22.887Z,1.90
2019-05-19T13:35:22.886Z,2.10
2019-05-19T13:36:22.863Z,1.90
2019-05-19T13:37:22.849Z,1.80
2019-05-19T13:38:22.837Z,1.80
2019-05-19T13:39:22.829Z,2.00
2019-05-19T13:40:22.830Z,1.90
2019-05-19T13:41:22.805Z,1.80
2019-05-19T13:42:22.792Z,1.90
2019-05-19T13:43:26.187Z,1.90
2019-05-19T13:44:22.773Z,1.60
2019-05-19T13:45:22.769Z,1.70
2019-05-19T13:46:22.744Z,1.90
2019-05-19T13:47:22.731Z,1.80
2019-05-19T13:48:22.721Z,1.90
2019-05-19T13:49:22.715Z,2.00
2019-05-19T13:50:22.710Z,1.90
2019-05-19T13:51:22.682Z,1.90
2019-05-19T13:52:22.668Z,1.70
2019-05-19T13:53:22.655Z,1.90
2019-05-19T13:54:22.645Z,1.90
2019-05-19T13:55:22.645Z,1.70
2019-05-19T13:56:22.618Z,1.90
2019-05-19T13:57:22.605Z,2.00
2019-05-19T13:58:22.604Z,2.20
2019-05-19T13:59:22.577Z,2.30
2019-05-19T14:00:22.582Z,1.90
2019-05-19T14:01:28.782Z,2.20
2019-05-19T14:02:22.542Z,2.20
2019-05-19T14:03:22.524Z,2.30
2019-05-19T14:04:22.512Z,2.20
2019-05-19T14:05:22.498Z,2.20
2019-05-19T14:06:22.501Z,2.30
2019-05-19T14:07:22.471Z,2.20
2019-05-19T14:08:22.460Z,2.30
2019-05-19T14:09:22.454Z,2.20
2019-05-19T14:10:22.431Z,1.90
2019-05-19T14:11:22.429Z,2.30
2019-05-19T14:12:22.404Z,2.10
2019-05-19T14:13:22.390Z,2.60
2019-05-19T14:14:22.376Z,2.20
2019-05-19T14:15:22.407Z,2.50
2019-05-19T14:16:22.374Z,2.50
2019-05-19T14:17:22.339Z,2.40
2019-05-19T14:18:22.323Z,2.50
2019-05-19T14:19:22.318Z,2.40
2019-05-19T14:20:22.293Z,2.70
2019-05-19T14:21:22.329Z,2.50
2019-05-19T14:22:22.266Z,2.10
2019-05-19T14:23:22.254Z,2.20
2019-05-19T14:24:22.245Z,2.40
2019-05-19T14:25:22.226Z,2.50
2019-05-19T14:26:22.214Z,2.40
2019-05-19T14:27:30.066Z,2.30
2019-05-19T14:28:22.190Z,2.50
2019-05-19T14:29:22.177Z,2.40
2019-05-19T14:30:22.167Z,2.10
2019-05-19T14:31:22.191Z,2.00
2019-05-19T14:32:22.157Z,2.10
2019-05-19T14:33:22.129Z,2.20
2019-05-19T14:34:22.121Z,2.10
2019-05-19T14:35:22.106Z,2.40
2019-05-19T14:36:22.094Z,2.10
2019-05-19T14:37:22.097Z,2.20
2019-05-19T14:38:22.071Z,2.10
2019-05-19T14:39:22.058Z,2.60
2019-05-19T14:40:22.047Z,2.50
2019-05-19T14:41:33.105Z,2.20
2019-05-19T14:42:22.055Z,2.20
2019-05-19T14:43:22.010Z,2.00
2019-05-19T14:44:21.999Z,2.30
2019-05-19T14:45:21.986Z,2.20
2019-05-19T14:46:21.974Z,2.30
2019-05-19T14:47:21.999Z,2.20
2019-05-19T14:48:21.957Z,2.30
2019-05-19T14:49:21.941Z,2.10
2019-05-19T14:50:21.932Z,2.40
2019-05-19T14:51:21.933Z,2.30
2019-05-19T14:52:21.920Z,2.30
2019-05-19T14:53:21.889Z,2.20
2019-05-19T14:54:21.873Z,2.10
2019-05-19T14:55:21.866Z,2.10
2019-05-19T14:56:21.850Z,2.40
2019-05-19T14:57:21.874Z,2.00
2019-05-19T14:58:21.824Z,1.90
2019-05-19T14:59:21.809Z,2.00
2019-05-19T15:00:21.799Z,2.10
2019-05-19T15:01:21.793Z,2.30
2019-05-19T15:02:21.775Z,2.10
2019-05-19T15:03:21.779Z,2.10
2019-05-19T15:04:21.748Z,2.30
2019-05-19T15:05:21.734Z,2.30
2019-05-19T15:06:21.722Z,2.30
2019-05-19T15:07:21.707Z,2.00
2019-05-19T15:08:21.709Z,2.30
2019-05-19T15:09:21.683Z,2.00
2019-05-19T15:10:21.672Z,1.90
2019-05-19T15:11:21.660Z,1.80
2019-05-19T15:12:21.648Z,1.90
2019-05-19T15:13:21.672Z,1.80
2019-05-19T15:14:21.627Z,1.80
2019-05-19T15:15:21.613Z,1.70
2019-05-19T15:16:21.600Z,2.00
2019-05-19T15:17:21.592Z,1.80
2019-05-19T15:18:21.579Z,1.70
2019-05-19T15:19:21.582Z,1.70
2019-05-19T15:20:21.557Z,1.80
2019-05-19T15:21:21.549Z,1.70
2019-05-19T15:22:21.537Z,1.60
2019-05-19T15:23:21.527Z,1.80
2019-05-19T15:24:21.533Z,1.70
2019-05-19T15:25:21.509Z,1.60
2019-05-19T15:26:21.503Z,1.60
2019-05-19T15:27:21.493Z,1.50
2019-05-19T15:28:21.481Z,1.60
2019-05-19T15:29:21.492Z,1.40
2019-05-19T15:30:21.463Z,1.80
2019-05-19T15:31:21.453Z,1.50
2019-05-19T15:32:21.446Z,1.50
2019-05-19T15:33:21.466Z,1.60
2019-05-19T15:34:21.428Z,1.50
2019-05-19T15:35:21.431Z,1.80
2019-05-19T15:36:21.409Z,1.70
2019-05-19T15:37:21.401Z,1.70
2019-05-19T15:38:21.393Z,1.80
2019-05-19T15:39:21.382Z,1.60
2019-05-19T15:40:21.386Z,1.80
2019-05-19T15:41:21.438Z,1.80
2019-05-19T15:42:21.355Z,1.80
2019-05-19T15:43:21.350Z,1.90
2019-05-19T15:44:21.336Z,1.90
2019-05-19T15:45:21.341Z,1.80
2019-05-19T15:46:21.320Z,1.50
2019-05-19T15:47:21.309Z,1.70
2019-05-19T15:48:21.297Z,1.60
2019-05-19T15:49:21.286Z,1.70
2019-05-19T15:50:21.293Z,1.70
2019-05-19T15:51:28.735Z,1.80
2019-05-19T15:52:21.257Z,1.60
2019-05-19T15:53:21.244Z,1.60
2019-05-19T15:54:21.237Z,1.90
2019-05-19T15:55:21.243Z,1.70
2019-05-19T15:56:21.215Z,1.90
2019-05-19T15:57:21.204Z,1.70
2019-05-19T15:58:21.197Z,1.90
2019-05-19T15:59:21.182Z,1.80
2019-05-19T16:00:21.172Z,1.60
2019-05-19T16:01:21.173Z,1.90
2019-05-19T16:02:21.154Z,1.70
2019-05-19T16:03:21.146Z,1.70
2019-05-19T16:04:21.128Z,1.60
2019-05-19T16:05:21.120Z,1.50
2019-05-19T16:06:21.132Z,1.70
2019-05-19T16:07:21.099Z,1.80
2019-05-19T16:08:21.092Z,1.70
2019-05-19T16:09:21.073Z,1.80
2019-05-19T16:10:21.080Z,1.80
2019-05-19T16:11:21.075Z,1.70
2019-05-19T16:12:21.042Z,1.70
2019-05-19T16:13:22.118Z,1.70
2019-05-19T16:14:21.021Z,1.60
2019-05-19T16:15:21.009Z,1.90
2019-05-19T16:16:20.998Z,1.70
2019-05-19T16:17:21.009Z,1.70
2019-05-19T16:18:20.980Z,2.00
2019-05-19T16:19:20.972Z,1.70
2019-05-19T16:20:20.962Z,1.60
2019-05-19T16:21:20.967Z,1.70
2019-05-19T16:22:20.960Z,1.80
2019-05-19T16:23:20.928Z,1.90
2019-05-19T16:24:20.921Z,1.50
2019-05-19T16:25:20.910Z,1.70
2019-05-19T16:26:20.899Z,1.90
2019-05-19T16:27:20.906Z,1.90
2019-05-19T16:28:30.404Z,1.50
2019-05-19T16:29:20.876Z,1.70
2019-05-19T16:30:20.861Z,1.70
2019-05-19T16:31:20.850Z,1.70
2019-05-19T16:32:20.892Z,1.50
2019-05-19T16:33:20.835Z,1.60
2019-05-19T16:34:20.826Z,1.50
2019-05-19T16:35:20.819Z,1.80
2019-05-19T16:36:20.815Z,1.60
2019-05-19T16:37:20.803Z,1.70
2019-05-19T16:38:20.809Z,1.60
2019-05-19T16:39:20.786Z,1.70
2019-05-19T16:40:20.782Z,1.60
2019-05-19T16:41:20.771Z,1.40
2019-05-19T16:42:20.765Z,1.40
2019-05-19T16:43:20.768Z,1.50
2019-05-19T16:44:20.747Z,1.60
2019-05-19T16:45:20.740Z,1.40
2019-05-19T16:46:20.731Z,1.50
2019-05-19T16:47:20.722Z,1.50
2019-05-19T16:48:23.271Z,1.70
2019-05-19T16:49:20.708Z,1.70
2019-05-19T16:50:20.710Z,1.70
2019-05-19T16:51:20.693Z,1.70
2019-05-19T16:52:20.704Z,1.80
2019-05-19T16:53:20.675Z,1.80
2019-05-19T16:54:20.681Z,1.90
2019-05-19T16:55:20.658Z,1.60
2019-05-19T16:56:20.648Z,1.60
2019-05-19T16:57:20.652Z,1.70
2019-05-19T16:58:21.810Z,1.90
2019-05-19T16:59:20.654Z,1.70
2019-05-19T17:00:20.623Z,1.60
2019-05-19T17:01:20.604Z,1.50
2019-05-19T17:02:20.592Z,1.70
2019-05-19T17:03:20.595Z,1.60
2019-05-19T17:04:20.585Z,1.80
2019-05-19T17:05:20.562Z,2.00
2019-05-19T17:06:20.551Z,1.90
2019-05-19T17:07:20.547Z,1.70
2019-05-19T17:08:20.532Z,1.80
2019-05-19T17:09:20.657Z,2.00
2019-05-19T17:10:20.526Z,2.00
2019-05-19T17:11:20.499Z,2.00
2019-05-19T17:12:20.487Z,2.30
2019-05-19T17:13:20.476Z,2.10
2019-05-19T17:14:20.465Z,2.20
2019-05-19T17:15:20.471Z,2.20
2019-05-19T17:16:20.443Z,2.20
2019-05-19T17:17:20.433Z,2.10
2019-05-19T17:18:20.421Z,2.00
2019-05-19T17:19:20.412Z,1.90
2019-05-19T17:20:20.426Z,1.90
2019-05-19T17:21:20.387Z,1.90
2019-05-19T17:22:20.374Z,2.00
2019-05-19T17:23:20.361Z,1.90
2019-05-19T17:24:20.351Z,1.80
2019-05-19T17:25:20.342Z,1.80
2019-05-19T17:26:20.342Z,1.60
2019-05-19T17:27:20.315Z,1.80
2019-05-19T17:28:20.300Z,1.50
2019-05-19T17:29:20.289Z,1.60
2019-05-19T17:30:20.278Z,1.70
2019-05-19T17:31:20.278Z,1.60
2019-05-19T17:32:20.252Z,1.80
2019-05-19T17:33:20.244Z,1.60
2019-05-19T17:34:20.229Z,1.70
2019-05-19T17:35:20.219Z,1.90
2019-05-19T17:36:20.240Z,1.60
2019-05-19T17:37:20.192Z,1.70
2019-05-19T17:38:20.178Z,1.70
2019-05-19T17:39:20.182Z,1.90
2019-05-19T17:40:20.153Z,1.50
2019-05-19T17:41:20.144Z,1.70
2019-05-19T17:42:20.143Z,1.80
2019-05-19T17:43:20.120Z,2.00
2019-05-19T17:44:20.108Z,1.80
2019-05-19T17:45:20.091Z,2.00
2019-05-19T17:46:20.087Z,2.10
2019-05-19T17:47:20.105Z,2.10
2019-05-19T17:48:26.591Z,2.30
2019-05-19T17:49:20.048Z,2.20
2019-05-19T17:50:20.037Z,2.30
2019-05-19T17:51:20.033Z,2.00
2019-05-19T17:52:20.008Z,2.20
2019-05-19T17:53:19.994Z,2.00
2019-05-19T17:54:20.290Z,2.20
2019-05-19T17:55:19.968Z,2.50
2019-05-19T17:56:19.992Z,2.70
2019-05-19T17:57:19.950Z,2.40
2019-05-19T17:58:19.933Z,2.30
2019-05-19T17:59:19.916Z,2.40
2019-05-19T18:00:19.901Z,2.50
2019-05-19T18:01:19.891Z,2.00
2019-05-19T18:02:19.893Z,2.30
2019-05-19T18:03:19.861Z,2.20
2019-05-19T18:04:19.849Z,2.60
2019-05-19T18:05:19.839Z,2.40
2019-05-19T18:06:19.824Z,2.30
2019-05-19T18:07:19.825Z,2.50
2019-05-19T18:08:19.797Z,2.60
2019-05-19T18:09:19.785Z,2.20
2019-05-19T18:10:19.773Z,2.50
2019-05-19T18:11:19.758Z,2.60
2019-05-19T18:12:19.743Z,2.60
2019-05-19T18:13:19.745Z,2.60
2019-05-19T18:14:19.716Z,2.70
2019-05-19T18:15:19.707Z,2.40
2019-05-19T18:16:19.692Z,2.70
2019-05-19T18:17:19.673Z,2.70
2019-05-19T18:18:19.677Z,2.90
2019-05-19T18:19:19.647Z,2.70
2019-05-19T18:20:23.861Z,3.00
2019-05-19T18:21:19.619Z,3.10
2019-05-19T18:22:19.606Z,2.50
2019-05-19T18:23:19.606Z,2.40
2019-05-19T18:24:19.578Z,2.60
2019-05-19T18:25:19.563Z,3.00
2019-05-19T18:26:19.549Z,2.70
2019-05-19T18:27:19.544Z,2.80
2019-05-19T18:28:19.538Z,2.70
2019-05-19T18:29:30.577Z,2.70
2019-05-19T18:30:19.494Z,2.60
2019-05-19T18:31:19.477Z,2.90
2019-05-19T18:32:19.463Z,2.70
2019-05-19T18:33:19.464Z,2.70
2019-05-19T18:34:19.434Z,2.80
2019-05-19T18:35:19.418Z,3.00
2019-05-19T18:36:19.403Z,3.20
2019-05-19T18:37:19.394Z,3.00
2019-05-19T18:38:19.389Z,3.20
2019-05-19T18:39:19.377Z,2.90
2019-05-19T18:40:19.343Z,2.70
2019-05-19T18:41:19.329Z,3.40
2019-05-19T18:42:20.586Z,3.10
2019-05-19T18:43:19.319Z,3.20
2019-05-19T18:44:19.286Z,3.00
2019-05-19T18:45:19.276Z,2.80
2019-05-19T18:46:19.257Z,2.60
2019-05-19T18:47:19.243Z,3.00
2019-05-19T18:48:19.228Z,2.60
2019-05-19T18:49:19.294Z,2.70
2019-05-19T18:50:19.196Z,2.50
2019-05-19T18:51:19.182Z,2.50
2019-05-19T18:52:19.165Z,2.60
2019-05-19T18:53:19.168Z,2.50
2019-05-19T18:54:19.136Z,2.40
2019-05-19T18:55:19.119Z,2.70
2019-05-19T18:56:19.103Z,2.70
2019-05-19T18:57:19.091Z,2.40
2019-05-19T18:58:19.092Z,2.50
2019-05-19T18:59:19.071Z,2.50
2019-05-19T19:00:19.042Z,2.30
2019-05-19T19:01:19.025Z,2.30
2019-05-19T19:02:19.015Z,2.30
2019-05-19T19:03:18.997Z,2.80